sensor_id;sensor_type;location;lat;lon;timestamp;temperature;humidity
83553;DHT22;73510;50.866;5.420;2024-03-25T00:00:13;5.60;69.00
83553;DHT22;73510;50.866;5.420;2024-03-25T00:02:39;5.50;68.90
83553;DHT22;73510;50.866;5.420;2024-03-25T00:05:06;5.50;68.90
83553;DHT22;73510;50.866;5.420;2024-03-25T00:07:35;5.50;68.80
83553;DHT22;73510;50.866;5.420;2024-03-25T00:10:02;5.50;68.80
83553;DHT22;73510;50.866;5.420;2024-03-25T00:12:28;5.50;68.90
83553;DHT22;73510;50.866;5.420;2024-03-25T00:14:54;5.40;69.00
83553;DHT22;73510;50.866;5.420;2024-03-25T00:17:20;5.40;68.80
83553;DHT22;73510;50.866;5.420;2024-03-25T00:19:46;5.30;68.90
83553;DHT22;73510;50.866;5.420;2024-03-25T00:22:19;5.30;68.90
83553;DHT22;73510;50.866;5.420;2024-03-25T00:24:45;5.30;68.90
83553;DHT22;73510;50.866;5.420;2024-03-25T00:27:12;5.30;68.90
83553;DHT22;73510;50.866;5.420;2024-03-25T00:29:38;5.30;68.90
83553;DHT22;73510;50.866;5.420;2024-03-25T00:32:04;5.30;68.90
83553;DHT22;73510;50.866;5.420;2024-03-25T00:34:30;5.30;68.90
83553;DHT22;73510;50.866;5.420;2024-03-25T00:36:55;5.20;68.90
83553;DHT22;73510;50.866;5.420;2024-03-25T00:39:21;5.20;68.80
83553;DHT22;73510;50.866;5.420;2024-03-25T00:41:50;5.10;68.70
83553;DHT22;73510;50.866;5.420;2024-03-25T00:44:15;5.10;68.80
83553;DHT22;73510;50.866;5.420;2024-03-25T00:46:41;5.10;69.00
83553;DHT22;73510;50.866;5.420;2024-03-25T00:49:07;5.10;68.80
83553;DHT22;73510;50.866;5.420;2024-03-25T00:51:34;5.10;68.80
83553;DHT22;73510;50.866;5.420;2024-03-25T00:53:59;5.10;68.70
83553;DHT22;73510;50.866;5.420;2024-03-25T00:56:25;5.00;68.70
83553;DHT22;73510;50.866;5.420;2024-03-25T00:58:51;5.00;68.60
83553;DHT22;73510;50.866;5.420;2024-03-25T01:01:17;5.00;68.60
83553;DHT22;73510;50.866;5.420;2024-03-25T01:03:42;5.00;68.70
83553;DHT22;73510;50.866;5.420;2024-03-25T01:06:08;5.00;68.80
83553;DHT22;73510;50.866;5.420;2024-03-25T01:08:33;4.90;68.70
83553;DHT22;73510;50.866;5.420;2024-03-25T01:10:59;4.90;68.70
83553;DHT22;73510;50.866;5.420;2024-03-25T01:13:25;4.90;69.00
83553;DHT22;73510;50.866;5.420;2024-03-25T01:15:51;4.90;69.30
83553;DHT22;73510;50.866;5.420;2024-03-25T01:18:17;4.80;69.40
83553;DHT22;73510;50.866;5.420;2024-03-25T01:20:43;4.90;69.40
83553;DHT22;73510;50.866;5.420;2024-03-25T01:23:10;4.90;69.40
83553;DHT22;73510;50.866;5.420;2024-03-25T01:25:35;4.80;69.20
83553;DHT22;73510;50.866;5.420;2024-03-25T01:28:01;4.80;69.20
83553;DHT22;73510;50.866;5.420;2024-03-25T01:30:27;4.80;69.40
83553;DHT22;73510;50.866;5.420;2024-03-25T01:32:54;4.80;69.40
83553;DHT22;73510;50.866;5.420;2024-03-25T01:35:20;4.80;69.30
83553;DHT22;73510;50.866;5.420;2024-03-25T01:37:46;4.70;69.10
83553;DHT22;73510;50.866;5.420;2024-03-25T01:40:12;4.70;69.10
83553;DHT22;73510;50.866;5.420;2024-03-25T01:42:37;4.70;69.00
83553;DHT22;73510;50.866;5.420;2024-03-25T01:45:04;4.70;69.10
83553;DHT22;73510;50.866;5.420;2024-03-25T01:47:31;4.70;69.10
83553;DHT22;73510;50.866;5.420;2024-03-25T01:49:59;4.70;69.00
83553;DHT22;73510;50.866;5.420;2024-03-25T01:52:25;4.60;69.00
83553;DHT22;73510;50.866;5.420;2024-03-25T01:54:52;4.60;69.00
83553;DHT22;73510;50.866;5.420;2024-03-25T01:57:19;4.50;69.10
83553;DHT22;73510;50.866;5.420;2024-03-25T01:59:45;4.50;69.20
83553;DHT22;73510;50.866;5.420;2024-03-25T02:02:12;4.50;69.20
83553;DHT22;73510;50.866;5.420;2024-03-25T02:04:39;4.50;68.90
83553;DHT22;73510;50.866;5.420;2024-03-25T02:07:07;4.50;68.90
83553;DHT22;73510;50.866;5.420;2024-03-25T02:09:34;4.40;68.80
83553;DHT22;73510;50.866;5.420;2024-03-25T02:12:01;4.40;68.80
83553;DHT22;73510;50.866;5.420;2024-03-25T02:14:27;4.40;68.50
83553;DHT22;73510;50.866;5.420;2024-03-25T02:16:53;4.40;68.50
83553;DHT22;73510;50.866;5.420;2024-03-25T02:19:19;4.30;68.50
83553;DHT22;73510;50.866;5.420;2024-03-25T02:21:47;4.30;68.60
83553;DHT22;73510;50.866;5.420;2024-03-25T02:24:14;4.20;68.60
83553;DHT22;73510;50.866;5.420;2024-03-25T02:26:40;4.20;68.40
83553;DHT22;73510;50.866;5.420;2024-03-25T02:29:09;4.20;68.70
83553;DHT22;73510;50.866;5.420;2024-03-25T02:31:35;4.10;68.70
83553;DHT22;73510;50.866;5.420;2024-03-25T02:34:00;4.10;69.00
83553;DHT22;73510;50.866;5.420;2024-03-25T02:36:26;4.10;69.20
83553;DHT22;73510;50.866;5.420;2024-03-25T02:38:52;4.10;69.70
83553;DHT22;73510;50.866;5.420;2024-03-25T02:41:18;4.10;69.60
83553;DHT22;73510;50.866;5.420;2024-03-25T02:43:43;4.10;69.50
83553;DHT22;73510;50.866;5.420;2024-03-25T02:46:09;4.10;69.30
83553;DHT22;73510;50.866;5.420;2024-03-25T02:48:35;4.10;69.60
83553;DHT22;73510;50.866;5.420;2024-03-25T02:51:00;4.00;69.30
83553;DHT22;73510;50.866;5.420;2024-03-25T02:53:26;4.00;68.80
83553;DHT22;73510;50.866;5.420;2024-03-25T02:55:52;4.00;68.60
83553;DHT22;73510;50.866;5.420;2024-03-25T02:58:17;3.90;68.40
83553;DHT22;73510;50.866;5.420;2024-03-25T03:00:43;3.90;68.30
83553;DHT22;73510;50.866;5.420;2024-03-25T03:03:09;3.90;68.30
83553;DHT22;73510;50.866;5.420;2024-03-25T03:05:34;3.90;68.40
83553;DHT22;73510;50.866;5.420;2024-03-25T03:08:00;3.90;68.30
83553;DHT22;73510;50.866;5.420;2024-03-25T03:10:26;3.80;68.50
83553;DHT22;73510;50.866;5.420;2024-03-25T03:12:52;3.80;68.30
83553;DHT22;73510;50.866;5.420;2024-03-25T03:15:17;3.70;68.30
83553;DHT22;73510;50.866;5.420;2024-03-25T03:17:43;3.70;68.30
83553;DHT22;73510;50.866;5.420;2024-03-25T03:20:09;3.70;68.40
83553;DHT22;73510;50.866;5.420;2024-03-25T03:22:35;3.70;68.30
83553;DHT22;73510;50.866;5.420;2024-03-25T03:25:01;3.60;68.20
83553;DHT22;73510;50.866;5.420;2024-03-25T03:27:26;3.60;68.20
83553;DHT22;73510;50.866;5.420;2024-03-25T03:29:52;3.60;68.30
83553;DHT22;73510;50.866;5.420;2024-03-25T03:32:18;3.60;68.40
83553;DHT22;73510;50.866;5.420;2024-03-25T03:34:44;3.60;68.60
83553;DHT22;73510;50.866;5.420;2024-03-25T03:37:10;3.50;69.30
83553;DHT22;73510;50.866;5.420;2024-03-25T03:39:35;3.50;69.10
83553;DHT22;73510;50.866;5.420;2024-03-25T03:42:01;3.50;68.80
83553;DHT22;73510;50.866;5.420;2024-03-25T03:44:26;3.50;68.40
83553;DHT22;73510;50.866;5.420;2024-03-25T03:46:52;3.50;68.70
83553;DHT22;73510;50.866;5.420;2024-03-25T03:49:18;3.50;68.60
83553;DHT22;73510;50.866;5.420;2024-03-25T03:51:43;3.40;68.60
83553;DHT22;73510;50.866;5.420;2024-03-25T03:54:09;3.40;68.70
83553;DHT22;73510;50.866;5.420;2024-03-25T03:56:34;3.40;68.20
83553;DHT22;73510;50.866;5.420;2024-03-25T03:59:00;3.30;68.30
83553;DHT22;73510;50.866;5.420;2024-03-25T04:01:26;3.30;68.20
83553;DHT22;73510;50.866;5.420;2024-03-25T04:03:51;3.30;68.20
83553;DHT22;73510;50.866;5.420;2024-03-25T04:06:17;3.30;68.00
83553;DHT22;73510;50.866;5.420;2024-03-25T04:08:43;3.30;68.00
83553;DHT22;73510;50.866;5.420;2024-03-25T04:11:10;3.30;68.00
83553;DHT22;73510;50.866;5.420;2024-03-25T04:13:36;3.20;68.00
83553;DHT22;73510;50.866;5.420;2024-03-25T04:16:05;3.10;68.20
83553;DHT22;73510;50.866;5.420;2024-03-25T04:18:33;3.20;68.40
83553;DHT22;73510;50.866;5.420;2024-03-25T04:20:59;3.10;68.10
83553;DHT22;73510;50.866;5.420;2024-03-25T04:23:25;3.10;68.00
83553;DHT22;73510;50.866;5.420;2024-03-25T04:25:51;3.10;68.20
83553;DHT22;73510;50.866;5.420;2024-03-25T04:28:17;3.10;68.20
83553;DHT22;73510;50.866;5.420;2024-03-25T04:30:43;3.10;68.10
83553;DHT22;73510;50.866;5.420;2024-03-25T04:33:08;3.10;68.40
83553;DHT22;73510;50.866;5.420;2024-03-25T04:35:34;3.10;68.20
83553;DHT22;73510;50.866;5.420;2024-03-25T04:38:00;3.10;68.40
83553;DHT22;73510;50.866;5.420;2024-03-25T04:40:26;3.10;68.50
83553;DHT22;73510;50.866;5.420;2024-03-25T04:42:52;3.00;69.30
83553;DHT22;73510;50.866;5.420;2024-03-25T04:45:17;3.00;69.20
83553;DHT22;73510;50.866;5.420;2024-03-25T04:47:43;3.00;69.20
83553;DHT22;73510;50.866;5.420;2024-03-25T04:50:09;3.00;69.00
83553;DHT22;73510;50.866;5.420;2024-03-25T04:52:35;3.00;68.90
83553;DHT22;73510;50.866;5.420;2024-03-25T04:55:01;3.00;68.80
83553;DHT22;73510;50.866;5.420;2024-03-25T04:57:27;3.00;69.10
83553;DHT22;73510;50.866;5.420;2024-03-25T04:59:53;3.00;69.00
83553;DHT22;73510;50.866;5.420;2024-03-25T05:02:19;3.00;69.20
83553;DHT22;73510;50.866;5.420;2024-03-25T05:04:44;3.00;69.10
83553;DHT22;73510;50.866;5.420;2024-03-25T05:07:10;3.00;69.30
83553;DHT22;73510;50.866;5.420;2024-03-25T05:09:36;3.00;69.30
83553;DHT22;73510;50.866;5.420;2024-03-25T05:12:01;3.00;69.50
83553;DHT22;73510;50.866;5.420;2024-03-25T05:14:27;3.00;69.30
83553;DHT22;73510;50.866;5.420;2024-03-25T05:16:53;3.00;69.30
83553;DHT22;73510;50.866;5.420;2024-03-25T05:19:19;3.10;69.40
83553;DHT22;73510;50.866;5.420;2024-03-25T05:21:45;3.10;69.80
83553;DHT22;73510;50.866;5.420;2024-03-25T05:24:10;3.10;69.60
83553;DHT22;73510;50.866;5.420;2024-03-25T05:26:36;3.00;69.80
83553;DHT22;73510;50.866;5.420;2024-03-25T05:29:02;3.10;70.00
83553;DHT22;73510;50.866;5.420;2024-03-25T05:31:28;3.10;69.80
83553;DHT22;73510;50.866;5.420;2024-03-25T05:33:53;3.10;69.80
83553;DHT22;73510;50.866;5.420;2024-03-25T05:36:19;3.10;70.00
83553;DHT22;73510;50.866;5.420;2024-03-25T05:38:45;3.10;69.90
83553;DHT22;73510;50.866;5.420;2024-03-25T05:41:11;3.10;69.90
83553;DHT22;73510;50.866;5.420;2024-03-25T05:43:37;3.10;70.00
83553;DHT22;73510;50.866;5.420;2024-03-25T05:46:03;3.10;70.10
83553;DHT22;73510;50.866;5.420;2024-03-25T05:48:29;3.10;70.30
83553;DHT22;73510;50.866;5.420;2024-03-25T05:51:02;3.20;70.20
83553;DHT22;73510;50.866;5.420;2024-03-25T05:53:31;3.30;70.20
83553;DHT22;73510;50.866;5.420;2024-03-25T05:55:57;3.30;70.20
83553;DHT22;73510;50.866;5.420;2024-03-25T05:58:24;3.40;70.40
83553;DHT22;73510;50.866;5.420;2024-03-25T06:00:51;3.50;70.10
83553;DHT22;73510;50.866;5.420;2024-03-25T06:03:16;3.50;70.40
83553;DHT22;73510;50.866;5.420;2024-03-25T06:05:43;3.60;70.40
83553;DHT22;73510;50.866;5.420;2024-03-25T06:08:09;3.90;70.70
83553;DHT22;73510;50.866;5.420;2024-03-25T06:10:43;4.00;70.30
83553;DHT22;73510;50.866;5.420;2024-03-25T06:13:09;4.20;70.00
83553;DHT22;73510;50.866;5.420;2024-03-25T06:15:35;4.50;70.30
83553;DHT22;73510;50.866;5.420;2024-03-25T06:18:01;5.00;69.60
83553;DHT22;73510;50.866;5.420;2024-03-25T06:20:26;5.40;69.00
83553;DHT22;73510;50.866;5.420;2024-03-25T06:22:52;5.90;68.20
83553;DHT22;73510;50.866;5.420;2024-03-25T06:25:18;6.50;67.90
83553;DHT22;73510;50.866;5.420;2024-03-25T06:27:43;7.20;66.60
83553;DHT22;73510;50.866;5.420;2024-03-25T06:30:10;7.90;66.40
83553;DHT22;73510;50.866;5.420;2024-03-25T06:32:55;8.60;64.80
83553;DHT22;73510;50.866;5.420;2024-03-25T06:35:39;9.30;63.00
83553;DHT22;73510;50.866;5.420;2024-03-25T06:38:04;9.50;62.00
83553;DHT22;73510;50.866;5.420;2024-03-25T06:40:30;9.70;61.30
83553;DHT22;73510;50.866;5.420;2024-03-25T06:42:56;10.00;61.50
83553;DHT22;73510;50.866;5.420;2024-03-25T06:45:22;10.10;61.00
83553;DHT22;73510;50.866;5.420;2024-03-25T06:47:48;10.10;60.20
83553;DHT22;73510;50.866;5.420;2024-03-25T06:50:14;10.10;60.60
83553;DHT22;73510;50.866;5.420;2024-03-25T06:52:40;10.10;60.70
83553;DHT22;73510;50.866;5.420;2024-03-25T06:55:06;10.10;60.80
83553;DHT22;73510;50.866;5.420;2024-03-25T06:57:32;10.10;60.70
83553;DHT22;73510;50.866;5.420;2024-03-25T06:59:58;10.20;60.20
83553;DHT22;73510;50.866;5.420;2024-03-25T07:02:24;10.30;60.90
83553;DHT22;73510;50.866;5.420;2024-03-25T07:04:49;10.30;61.20
83553;DHT22;73510;50.866;5.420;2024-03-25T07:07:15;10.40;61.20
83553;DHT22;73510;50.866;5.420;2024-03-25T07:09:41;10.50;60.60
83553;DHT22;73510;50.866;5.420;2024-03-25T07:12:07;10.70;60.20
83553;DHT22;73510;50.866;5.420;2024-03-25T07:14:33;10.90;59.50
83553;DHT22;73510;50.866;5.420;2024-03-25T07:16:58;11.10;59.60
83553;DHT22;73510;50.866;5.420;2024-03-25T07:19:24;11.30;59.50
83553;DHT22;73510;50.866;5.420;2024-03-25T07:21:50;11.40;59.60
83553;DHT22;73510;50.866;5.420;2024-03-25T07:24:15;11.50;59.00
83553;DHT22;73510;50.866;5.420;2024-03-25T07:26:41;11.40;59.40
83553;DHT22;73510;50.866;5.420;2024-03-25T07:29:07;11.40;59.00
83553;DHT22;73510;50.866;5.420;2024-03-25T07:31:32;11.40;59.40
83553;DHT22;73510;50.866;5.420;2024-03-25T07:33:58;11.40;59.40
83553;DHT22;73510;50.866;5.420;2024-03-25T07:36:24;11.50;59.30
83553;DHT22;73510;50.866;5.420;2024-03-25T07:38:50;11.90;58.70
83553;DHT22;73510;50.866;5.420;2024-03-25T07:41:15;12.20;58.20
83553;DHT22;73510;50.866;5.420;2024-03-25T07:43:41;12.50;57.60
83553;DHT22;73510;50.866;5.420;2024-03-25T07:46:07;12.60;57.60
83553;DHT22;73510;50.866;5.420;2024-03-25T07:48:32;12.70;57.10
83553;DHT22;73510;50.866;5.420;2024-03-25T07:50:58;12.90;56.80
83553;DHT22;73510;50.866;5.420;2024-03-25T07:53:24;13.40;56.50
83553;DHT22;73510;50.866;5.420;2024-03-25T07:55:49;13.80;56.00
83553;DHT22;73510;50.866;5.420;2024-03-25T07:58:16;14.40;55.00
83553;DHT22;73510;50.866;5.420;2024-03-25T08:00:42;14.90;54.00
83553;DHT22;73510;50.866;5.420;2024-03-25T08:03:08;15.40;53.20
83553;DHT22;73510;50.866;5.420;2024-03-25T08:05:33;16.00;52.30
83553;DHT22;73510;50.866;5.420;2024-03-25T08:07:59;16.90;52.10
83553;DHT22;73510;50.866;5.420;2024-03-25T08:10:25;17.60;50.60
83553;DHT22;73510;50.866;5.420;2024-03-25T08:12:50;18.20;50.20
83553;DHT22;73510;50.866;5.420;2024-03-25T08:15:16;18.70;48.70
83553;DHT22;73510;50.866;5.420;2024-03-25T08:17:42;19.00;48.60
83553;DHT22;73510;50.866;5.420;2024-03-25T08:20:08;19.30;48.10
83553;DHT22;73510;50.866;5.420;2024-03-25T08:22:34;19.50;48.20
83553;DHT22;73510;50.866;5.420;2024-03-25T08:24:59;19.70;47.20
83553;DHT22;73510;50.866;5.420;2024-03-25T08:27:25;19.70;46.90
83553;DHT22;73510;50.866;5.420;2024-03-25T08:29:51;19.50;47.50
83553;DHT22;73510;50.866;5.420;2024-03-25T08:32:19;19.40;47.50
83553;DHT22;73510;50.866;5.420;2024-03-25T08:34:44;19.30;47.40
83553;DHT22;73510;50.866;5.420;2024-03-25T08:37:11;19.10;46.80
83553;DHT22;73510;50.866;5.420;2024-03-25T08:39:36;18.60;47.30
83553;DHT22;73510;50.866;5.420;2024-03-25T08:42:02;18.20;48.70
83553;DHT22;73510;50.866;5.420;2024-03-25T08:44:28;18.10;48.40
83553;DHT22;73510;50.866;5.420;2024-03-25T08:46:53;18.00;48.30
83553;DHT22;73510;50.866;5.420;2024-03-25T08:49:19;18.00;48.30
83553;DHT22;73510;50.866;5.420;2024-03-25T08:51:45;18.00;48.20
83553;DHT22;73510;50.866;5.420;2024-03-25T08:54:11;18.20;48.40
83553;DHT22;73510;50.866;5.420;2024-03-25T08:56:37;18.80;48.00
83553;DHT22;73510;50.866;5.420;2024-03-25T08:59:02;19.30;46.90
83553;DHT22;73510;50.866;5.420;2024-03-25T09:01:28;19.80;46.40
83553;DHT22;73510;50.866;5.420;2024-03-25T09:03:56;20.10;45.80
83553;DHT22;73510;50.866;5.420;2024-03-25T09:06:21;20.50;45.70
83553;DHT22;73510;50.866;5.420;2024-03-25T09:08:47;21.20;45.40
83553;DHT22;73510;50.866;5.420;2024-03-25T09:11:31;21.80;44.40
83553;DHT22;73510;50.866;5.420;2024-03-25T09:13:57;22.10;44.30
83553;DHT22;73510;50.866;5.420;2024-03-25T09:16:23;22.40;43.60
83553;DHT22;73510;50.866;5.420;2024-03-25T09:18:48;22.30;43.40
83553;DHT22;73510;50.866;5.420;2024-03-25T09:21:14;22.50;43.20
83553;DHT22;73510;50.866;5.420;2024-03-25T09:23:40;22.90;42.80
83553;DHT22;73510;50.866;5.420;2024-03-25T09:26:05;23.40;42.20
83553;DHT22;73510;50.866;5.420;2024-03-25T09:28:31;23.60;41.50
83553;DHT22;73510;50.866;5.420;2024-03-25T09:30:56;23.60;43.50
83553;DHT22;73510;50.866;5.420;2024-03-25T09:33:22;24.10;42.50
83553;DHT22;73510;50.866;5.420;2024-03-25T09:35:49;24.70;41.10
83553;DHT22;73510;50.866;5.420;2024-03-25T09:38:15;25.30;40.50
83553;DHT22;73510;50.866;5.420;2024-03-25T09:40:41;25.60;41.20
83553;DHT22;73510;50.866;5.420;2024-03-25T09:43:12;26.00;40.10
83553;DHT22;73510;50.866;5.420;2024-03-25T09:45:40;26.40;38.90
83553;DHT22;73510;50.866;5.420;2024-03-25T09:48:06;26.40;38.90
83553;DHT22;73510;50.866;5.420;2024-03-25T09:50:32;26.10;38.70
83553;DHT22;73510;50.866;5.420;2024-03-25T09:52:58;25.80;38.60
83553;DHT22;73510;50.866;5.420;2024-03-25T09:55:24;25.60;38.60
83553;DHT22;73510;50.866;5.420;2024-03-25T09:57:50;25.50;38.60
83553;DHT22;73510;50.866;5.420;2024-03-25T10:00:17;25.60;39.10
83553;DHT22;73510;50.866;5.420;2024-03-25T10:02:44;26.00;38.70
83553;DHT22;73510;50.866;5.420;2024-03-25T10:05:10;26.20;38.70
83553;DHT22;73510;50.866;5.420;2024-03-25T10:07:36;26.10;38.00
83553;DHT22;73510;50.866;5.420;2024-03-25T10:10:06;26.00;38.40
83553;DHT22;73510;50.866;5.420;2024-03-25T10:12:32;26.00;38.80
83553;DHT22;73510;50.866;5.420;2024-03-25T10:14:58;26.00;38.60
83553;DHT22;73510;50.866;5.420;2024-03-25T10:17:24;26.00;38.80
83553;DHT22;73510;50.866;5.420;2024-03-25T10:19:50;26.20;38.70
83553;DHT22;73510;50.866;5.420;2024-03-25T10:22:16;26.20;38.20
83553;DHT22;73510;50.866;5.420;2024-03-25T10:24:45;26.20;38.20
83553;DHT22;73510;50.866;5.420;2024-03-25T10:29:42;26.40;38.60
83553;DHT22;73510;50.866;5.420;2024-03-25T10:32:08;26.50;38.40
83553;DHT22;73510;50.866;5.420;2024-03-25T10:34:34;26.70;37.90
83553;DHT22;73510;50.866;5.420;2024-03-25T10:37:01;26.70;37.60
83553;DHT22;73510;50.866;5.420;2024-03-25T10:39:27;26.70;37.30
83553;DHT22;73510;50.866;5.420;2024-03-25T10:41:57;26.80;37.00
83553;DHT22;73510;50.866;5.420;2024-03-25T10:44:29;26.90;37.20
83553;DHT22;73510;50.866;5.420;2024-03-25T10:47:01;27.00;37.60
83553;DHT22;73510;50.866;5.420;2024-03-25T10:49:32;27.20;37.90
83553;DHT22;73510;50.866;5.420;2024-03-25T10:52:01;27.40;36.40
83553;DHT22;73510;50.866;5.420;2024-03-25T10:54:30;27.50;36.40
83553;DHT22;73510;50.866;5.420;2024-03-25T10:56:59;27.80;37.00
83553;DHT22;73510;50.866;5.420;2024-03-25T10:59:29;28.00;36.10
83553;DHT22;73510;50.866;5.420;2024-03-25T11:01:55;28.00;36.20
83553;DHT22;73510;50.866;5.420;2024-03-25T11:04:23;28.20;35.50
83553;DHT22;73510;50.866;5.420;2024-03-25T11:06:49;28.30;35.10
83553;DHT22;73510;50.866;5.420;2024-03-25T11:09:24;28.10;34.90
83553;DHT22;73510;50.866;5.420;2024-03-25T11:11:52;28.10;35.10
83553;DHT22;73510;50.866;5.420;2024-03-25T11:14:18;28.00;35.60
83553;DHT22;73510;50.866;5.420;2024-03-25T11:16:54;27.30;35.30
83553;DHT22;73510;50.866;5.420;2024-03-25T11:19:20;27.00;35.70
83553;DHT22;73510;50.866;5.420;2024-03-25T11:21:50;27.20;34.90
83553;DHT22;73510;50.866;5.420;2024-03-25T11:24:29;27.30;35.00
83553;DHT22;73510;50.866;5.420;2024-03-25T11:26:56;27.70;36.40
83553;DHT22;73510;50.866;5.420;2024-03-25T11:29:22;28.10;34.80
83553;DHT22;73510;50.866;5.420;2024-03-25T11:31:49;28.00;35.30
83553;DHT22;73510;50.866;5.420;2024-03-25T11:34:15;27.30;35.40
83553;DHT22;73510;50.866;5.420;2024-03-25T11:36:41;26.50;35.30
83553;DHT22;73510;50.866;5.420;2024-03-25T11:39:07;25.80;35.50
83553;DHT22;73510;50.866;5.420;2024-03-25T11:41:39;25.40;35.80
83553;DHT22;73510;50.866;5.420;2024-03-25T11:44:05;25.30;35.70
83553;DHT22;73510;50.866;5.420;2024-03-25T11:46:36;24.90;36.30
83553;DHT22;73510;50.866;5.420;2024-03-25T11:49:08;24.20;36.60
83553;DHT22;73510;50.866;5.420;2024-03-25T11:51:35;23.60;37.20
83553;DHT22;73510;50.866;5.420;2024-03-25T11:54:03;23.00;38.40
83553;DHT22;73510;50.866;5.420;2024-03-25T11:56:30;22.50;38.80
83553;DHT22;73510;50.866;5.420;2024-03-25T11:58:56;22.00;39.20
83553;DHT22;73510;50.866;5.420;2024-03-25T12:01:22;21.70;40.40
83553;DHT22;73510;50.866;5.420;2024-03-25T12:03:47;21.30;39.50
83553;DHT22;73510;50.866;5.420;2024-03-25T12:06:13;21.00;39.00
83553;DHT22;73510;50.866;5.420;2024-03-25T12:08:39;20.60;38.50
83553;DHT22;73510;50.866;5.420;2024-03-25T12:11:24;20.30;38.50
83553;DHT22;73510;50.866;5.420;2024-03-25T12:13:50;20.00;38.80
83553;DHT22;73510;50.866;5.420;2024-03-25T12:16:17;19.90;39.70
83553;DHT22;73510;50.866;5.420;2024-03-25T12:18:42;19.60;39.10
83553;DHT22;73510;50.866;5.420;2024-03-25T12:21:10;19.30;38.80
83553;DHT22;73510;50.866;5.420;2024-03-25T12:23:36;19.10;39.70
83553;DHT22;73510;50.866;5.420;2024-03-25T12:26:02;19.00;39.20
83553;DHT22;73510;50.866;5.420;2024-03-25T12:28:31;18.80;39.60
83553;DHT22;73510;50.866;5.420;2024-03-25T12:30:57;18.80;40.10
83553;DHT22;73510;50.866;5.420;2024-03-25T12:33:23;18.70;39.80
83553;DHT22;73510;50.866;5.420;2024-03-25T12:35:50;18.70;40.00
83553;DHT22;73510;50.866;5.420;2024-03-25T12:40:49;18.70;40.50
83553;DHT22;73510;50.866;5.420;2024-03-25T12:43:17;18.70;40.10
83553;DHT22;73510;50.866;5.420;2024-03-25T12:45:43;18.70;39.90
83553;DHT22;73510;50.866;5.420;2024-03-25T12:48:09;18.80;41.00
83553;DHT22;73510;50.866;5.420;2024-03-25T12:50:35;18.90;40.10
83553;DHT22;73510;50.866;5.420;2024-03-25T12:53:01;18.90;39.40
83553;DHT22;73510;50.866;5.420;2024-03-25T12:55:31;18.80;40.70
83553;DHT22;73510;50.866;5.420;2024-03-25T12:57:57;18.60;39.60
83553;DHT22;73510;50.866;5.420;2024-03-25T13:00:24;18.50;41.00
83553;DHT22;73510;50.866;5.420;2024-03-25T13:02:50;18.40;40.30
83553;DHT22;73510;50.866;5.420;2024-03-25T13:05:16;18.30;40.50
83553;DHT22;73510;50.866;5.420;2024-03-25T13:07:41;18.30;41.90
83553;DHT22;73510;50.866;5.420;2024-03-25T13:10:07;18.30;41.20
83553;DHT22;73510;50.866;5.420;2024-03-25T13:12:33;18.40;40.70
83553;DHT22;73510;50.866;5.420;2024-03-25T13:14:58;18.30;40.20
83553;DHT22;73510;50.866;5.420;2024-03-25T13:17:25;18.20;40.50
83553;DHT22;73510;50.866;5.420;2024-03-25T13:19:50;18.20;39.70
83553;DHT22;73510;50.866;5.420;2024-03-25T13:22:16;18.20;40.50
83553;DHT22;73510;50.866;5.420;2024-03-25T13:24:42;18.10;40.70
83553;DHT22;73510;50.866;5.420;2024-03-25T13:27:07;18.00;40.90
83553;DHT22;73510;50.866;5.420;2024-03-25T13:29:33;18.00;41.60
83553;DHT22;73510;50.866;5.420;2024-03-25T13:32:01;18.00;40.80
83553;DHT22;73510;50.866;5.420;2024-03-25T13:34:28;18.00;40.70
83553;DHT22;73510;50.866;5.420;2024-03-25T13:36:53;18.00;40.20
83553;DHT22;73510;50.866;5.420;2024-03-25T13:39:19;17.90;40.70
83553;DHT22;73510;50.866;5.420;2024-03-25T13:41:45;17.80;40.50
83553;DHT22;73510;50.866;5.420;2024-03-25T13:44:11;17.80;40.20
83553;DHT22;73510;50.866;5.420;2024-03-25T13:46:37;17.80;40.90
83553;DHT22;73510;50.866;5.420;2024-03-25T13:49:02;18.00;41.50
83553;DHT22;73510;50.866;5.420;2024-03-25T13:51:28;18.00;40.80
83553;DHT22;73510;50.866;5.420;2024-03-25T13:53:54;17.90;41.60
83553;DHT22;73510;50.866;5.420;2024-03-25T13:56:19;17.80;39.90
83553;DHT22;73510;50.866;5.420;2024-03-25T13:58:45;17.80;40.10
83553;DHT22;73510;50.866;5.420;2024-03-25T14:01:11;17.70;40.00
83553;DHT22;73510;50.866;5.420;2024-03-25T14:03:36;17.50;40.50
83553;DHT22;73510;50.866;5.420;2024-03-25T14:06:02;17.50;40.70
83553;DHT22;73510;50.866;5.420;2024-03-25T14:08:28;17.50;40.50
83553;DHT22;73510;50.866;5.420;2024-03-25T14:11:02;17.40;40.50
83553;DHT22;73510;50.866;5.420;2024-03-25T14:13:28;17.20;41.00
83553;DHT22;73510;50.866;5.420;2024-03-25T14:15:54;17.00;41.70
83553;DHT22;73510;50.866;5.420;2024-03-25T14:18:19;16.90;42.60
83553;DHT22;73510;50.866;5.420;2024-03-25T14:20:45;16.80;42.60
83553;DHT22;73510;50.866;5.420;2024-03-25T14:23:12;16.60;41.90
83553;DHT22;73510;50.866;5.420;2024-03-25T14:25:37;16.50;42.10
83553;DHT22;73510;50.866;5.420;2024-03-25T14:28:03;16.40;42.30
83553;DHT22;73510;50.866;5.420;2024-03-25T14:30:29;16.20;42.20
83553;DHT22;73510;50.866;5.420;2024-03-25T14:32:55;16.10;42.60
83553;DHT22;73510;50.866;5.420;2024-03-25T14:35:21;16.00;42.60
83553;DHT22;73510;50.866;5.420;2024-03-25T14:37:48;16.00;42.40
83553;DHT22;73510;50.866;5.420;2024-03-25T14:40:15;15.80;42.50
83553;DHT22;73510;50.866;5.420;2024-03-25T14:42:43;15.80;42.30
83553;DHT22;73510;50.866;5.420;2024-03-25T14:45:08;15.80;42.80
83553;DHT22;73510;50.866;5.420;2024-03-25T14:47:34;15.70;42.80
83553;DHT22;73510;50.866;5.420;2024-03-25T14:50:00;15.60;42.60
83553;DHT22;73510;50.866;5.420;2024-03-25T14:52:26;15.60;42.70
83553;DHT22;73510;50.866;5.420;2024-03-25T14:54:51;15.50;43.00
83553;DHT22;73510;50.866;5.420;2024-03-25T14:57:17;15.50;43.40
83553;DHT22;73510;50.866;5.420;2024-03-25T14:59:43;15.40;43.10
83553;DHT22;73510;50.866;5.420;2024-03-25T15:02:09;15.40;42.80
83553;DHT22;73510;50.866;5.420;2024-03-25T15:04:41;15.30;42.40
83553;DHT22;73510;50.866;5.420;2024-03-25T15:07:13;15.20;42.90
83553;DHT22;73510;50.866;5.420;2024-03-25T15:09:38;15.10;42.60
83553;DHT22;73510;50.866;5.420;2024-03-25T15:12:05;15.00;42.80
83553;DHT22;73510;50.866;5.420;2024-03-25T15:14:31;15.00;43.30
83553;DHT22;73510;50.866;5.420;2024-03-25T15:16:57;15.00;43.40
83553;DHT22;73510;50.866;5.420;2024-03-25T15:19:26;14.90;43.20
83553;DHT22;73510;50.866;5.420;2024-03-25T15:21:52;14.90;43.00
83553;DHT22;73510;50.866;5.420;2024-03-25T15:24:18;14.90;43.20
83553;DHT22;73510;50.866;5.420;2024-03-25T15:26:43;14.90;43.20
83553;DHT22;73510;50.866;5.420;2024-03-25T15:29:09;14.80;43.00
83553;DHT22;73510;50.866;5.420;2024-03-25T15:31:35;14.80;42.70
83553;DHT22;73510;50.866;5.420;2024-03-25T15:34:01;14.70;43.30
83553;DHT22;73510;50.866;5.420;2024-03-25T15:36:27;14.70;43.40